sensor_id;sensor_type;location;lat;lon;timestamp;P1;durP1;ratioP1;P2;durP2;ratioP2
1563;SDS011;775;51.958;7.976;2023-04-03T00:00:23;10.17;;;1.80;;
1563;SDS011;775;51.958;7.976;2023-04-03T00:02:51;10.60;;;1.90;;
1563;SDS011;775;51.958;7.976;2023-04-03T00:05:18;11.17;;;2.20;;
1563;SDS011;775;51.958;7.976;2023-04-03T00:07:45;11.43;;;1.83;;
1563;SDS011;775;51.958;7.976;2023-04-03T00:10:14;12.20;;;1.93;;
1563;SDS011;775;51.958;7.976;2023-04-03T00:12:41;10.20;;;1.70;;
1563;SDS011;775;51.958;7.976;2023-04-03T00:15:09;11.97;;;2.00;;
1563;SDS011;775;51.958;7.976;2023-04-03T00:17:37;11.30;;;1.87;;
1563;SDS011;775;51.958;7.976;2023-04-03T00:20:06;12.20;;;2.40;;
1563;SDS011;775;51.958;7.976;2023-04-03T00:22:33;11.60;;;1.60;;
1563;SDS011;775;51.958;7.976;2023-04-03T00:25:00;10.13;;;1.80;;
1563;SDS011;775;51.958;7.976;2023-04-03T00:27:27;11.07;;;2.07;;
1563;SDS011;775;51.958;7.976;2023-04-03T00:29:54;13.00;;;2.00;;
1563;SDS011;775;51.958;7.976;2023-04-03T00:32:21;12.17;;;1.90;;
1563;SDS011;775;51.958;7.976;2023-04-03T00:34:49;11.17;;;2.00;;
1563;SDS011;775;51.958;7.976;2023-04-03T00:37:17;12.00;;;2.03;;
1563;SDS011;775;51.958;7.976;2023-04-03T00:39:44;10.10;;;1.80;;
1563;SDS011;775;51.958;7.976;2023-04-03T00:42:11;11.77;;;1.97;;
1563;SDS011;775;51.958;7.976;2023-04-03T00:47:25;10.93;;;1.70;;
1563;SDS011;775;51.958;7.976;2023-04-03T00:49:53;10.13;;;1.67;;
1563;SDS011;775;51.958;7.976;2023-04-03T00:52:22;10.93;;;1.77;;
1563;SDS011;775;51.958;7.976;2023-04-03T00:54:50;12.47;;;2.10;;
1563;SDS011;775;51.958;7.976;2023-04-03T00:57:18;11.47;;;2.40;;
1563;SDS011;775;51.958;7.976;2023-04-03T00:59:46;11.20;;;1.70;;
1563;SDS011;775;51.958;7.976;2023-04-03T01:02:15;11.27;;;1.70;;
1563;SDS011;775;51.958;7.976;2023-04-03T01:04:42;10.77;;;2.00;;
1563;SDS011;775;51.958;7.976;2023-04-03T01:07:11;13.20;;;2.10;;
1563;SDS011;775;51.958;7.976;2023-04-03T01:09:40;14.53;;;1.67;;
1563;SDS011;775;51.958;7.976;2023-04-03T01:12:15;12.43;;;1.80;;
1563;SDS011;775;51.958;7.976;2023-04-03T01:14:42;10.17;;;1.50;;
1563;SDS011;775;51.958;7.976;2023-04-03T01:17:23;11.80;;;2.20;;
1563;SDS011;775;51.958;7.976;2023-04-03T01:19:52;11.00;;;2.13;;
1563;SDS011;775;51.958;7.976;2023-04-03T01:22:23;11.70;;;1.60;;
1563;SDS011;775;51.958;7.976;2023-04-03T01:24:55;12.73;;;2.30;;
1563;SDS011;775;51.958;7.976;2023-04-03T01:27:22;11.70;;;2.23;;
1563;SDS011;775;51.958;7.976;2023-04-03T01:29:49;11.03;;;2.00;;
1563;SDS011;775;51.958;7.976;2023-04-03T01:32:17;12.17;;;2.33;;
1563;SDS011;775;51.958;7.976;2023-04-03T01:34:44;13.53;;;2.57;;
1563;SDS011;775;51.958;7.976;2023-04-03T01:37:11;11.70;;;2.00;;
1563;SDS011;775;51.958;7.976;2023-04-03T01:39:38;11.27;;;1.60;;
1563;SDS011;775;51.958;7.976;2023-04-03T01:42:05;10.60;;;1.90;;
1563;SDS011;775;51.958;7.976;2023-04-03T01:44:33;11.07;;;2.00;;
1563;SDS011;775;51.958;7.976;2023-04-03T01:47:00;14.13;;;2.30;;
1563;SDS011;775;51.958;7.976;2023-04-03T01:49:28;12.13;;;2.33;;
1563;SDS011;775;51.958;7.976;2023-04-03T01:51:55;11.13;;;2.03;;
1563;SDS011;775;51.958;7.976;2023-04-03T01:54:22;11.17;;;2.27;;
1563;SDS011;775;51.958;7.976;2023-04-03T01:56:49;11.00;;;2.00;;
1563;SDS011;775;51.958;7.976;2023-04-03T01:59:16;12.73;;;1.97;;
1563;SDS011;775;51.958;7.976;2023-04-03T02:01:44;11.30;;;1.50;;
1563;SDS011;775;51.958;7.976;2023-04-03T02:04:11;12.00;;;2.17;;
1563;SDS011;775;51.958;7.976;2023-04-03T02:06:40;11.37;;;2.13;;
1563;SDS011;775;51.958;7.976;2023-04-03T02:09:07;11.10;;;1.60;;
1563;SDS011;775;51.958;7.976;2023-04-03T02:11:34;12.97;;;2.23;;
1563;SDS011;775;51.958;7.976;2023-04-03T02:14:01;11.37;;;2.23;;
1563;SDS011;775;51.958;7.976;2023-04-03T02:16:28;12.97;;;2.03;;
1563;SDS011;775;51.958;7.976;2023-04-03T02:18:55;11.10;;;2.00;;
1563;SDS011;775;51.958;7.976;2023-04-03T02:21:22;11.20;;;2.40;;
1563;SDS011;775;51.958;7.976;2023-04-03T02:23:51;11.60;;;2.13;;
1563;SDS011;775;51.958;7.976;2023-04-03T02:26:18;11.10;;;2.17;;
1563;SDS011;775;51.958;7.976;2023-04-03T02:28:46;10.77;;;1.83;;
1563;SDS011;775;51.958;7.976;2023-04-03T02:31:13;10.70;;;2.00;;
1563;SDS011;775;51.958;7.976;2023-04-03T02:33:40;13.07;;;2.57;;
1563;SDS011;775;51.958;7.976;2023-04-03T02:36:07;12.07;;;2.27;;
1563;SDS011;775;51.958;7.976;2023-04-03T02:38:34;11.97;;;2.30;;
1563;SDS011;775;51.958;7.976;2023-04-03T02:41:03;11.07;;;2.07;;
1563;SDS011;775;51.958;7.976;2023-04-03T02:43:31;12.13;;;2.30;;
1563;SDS011;775;51.958;7.976;2023-04-03T02:45:58;13.03;;;2.17;;
1563;SDS011;775;51.958;7.976;2023-04-03T02:48:25;11.93;;;1.97;;
1563;SDS011;775;51.958;7.976;2023-04-03T02:50:52;14.17;;;2.10;;
1563;SDS011;775;51.958;7.976;2023-04-03T02:53:19;10.40;;;1.90;;
1563;SDS011;775;51.958;7.976;2023-04-03T02:55:47;10.63;;;1.67;;
1563;SDS011;775;51.958;7.976;2023-04-03T02:58:15;13.77;;;2.80;;
1563;SDS011;775;51.958;7.976;2023-04-03T03:00:43;11.43;;;2.00;;
1563;SDS011;775;51.958;7.976;2023-04-03T03:03:10;10.50;;;2.00;;
1563;SDS011;775;51.958;7.976;2023-04-03T03:05:38;15.40;;;2.30;;
1563;SDS011;775;51.958;7.976;2023-04-03T03:08:05;11.30;;;1.63;;
1563;SDS011;775;51.958;7.976;2023-04-03T03:10:32;13.77;;;2.17;;
1563;SDS011;775;51.958;7.976;2023-04-03T03:12:59;12.23;;;1.70;;
1563;SDS011;775;51.958;7.976;2023-04-03T03:15:28;12.50;;;2.03;;
1563;SDS011;775;51.958;7.976;2023-04-03T03:17:55;12.97;;;2.03;;
1563;SDS011;775;51.958;7.976;2023-04-03T03:20:22;12.73;;;1.97;;
1563;SDS011;775;51.958;7.976;2023-04-03T03:22:49;12.60;;;2.00;;
1563;SDS011;775;51.958;7.976;2023-04-03T03:25:16;11.40;;;1.90;;
1563;SDS011;775;51.958;7.976;2023-04-03T03:27:43;13.10;;;2.30;;
1563;SDS011;775;51.958;7.976;2023-04-03T03:30:11;11.17;;;1.83;;
1563;SDS011;775;51.958;7.976;2023-04-03T03:32:39;11.23;;;1.83;;
1563;SDS011;775;51.958;7.976;2023-04-03T03:35:06;11.20;;;2.07;;
1563;SDS011;775;51.958;7.976;2023-04-03T03:37:34;11.10;;;1.93;;
1563;SDS011;775;51.958;7.976;2023-04-03T03:40:01;12.20;;;1.90;;
1563;SDS011;775;51.958;7.976;2023-04-03T03:42:28;11.97;;;2.30;;
1563;SDS011;775;51.958;7.976;2023-04-03T03:44:55;10.73;;;2.00;;
1563;SDS011;775;51.958;7.976;2023-04-03T03:47:22;11.33;;;2.30;;
1563;SDS011;775;51.958;7.976;2023-04-03T03:49:51;12.40;;;1.97;;
1563;SDS011;775;51.958;7.976;2023-04-03T03:52:18;9.83;;;2.00;;
1563;SDS011;775;51.958;7.976;2023-04-03T03:54:45;10.33;;;1.80;;
1563;SDS011;775;51.958;7.976;2023-04-03T03:57:12;11.37;;;1.83;;
1563;SDS011;775;51.958;7.976;2023-04-03T03:59:40;11.93;;;2.03;;
1563;SDS011;775;51.958;7.976;2023-04-03T04:02:07;11.73;;;2.30;;
1563;SDS011;775;51.958;7.976;2023-04-03T04:04:34;10.00;;;1.70;;
1563;SDS011;775;51.958;7.976;2023-04-03T04:07:03;11.37;;;2.10;;
1563;SDS011;775;51.958;7.976;2023-04-03T04:09:30;12.50;;;2.00;;
1563;SDS011;775;51.958;7.976;2023-04-03T04:11:57;13.53;;;1.87;;
1563;SDS011;775;51.958;7.976;2023-04-03T04:14:24;11.13;;;2.17;;
1563;SDS011;775;51.958;7.976;2023-04-03T04:16:52;11.60;;;2.30;;
1563;SDS011;775;51.958;7.976;2023-04-03T04:19:19;12.37;;;2.30;;
1563;SDS011;775;51.958;7.976;2023-04-03T04:21:46;11.43;;;2.00;;
1563;SDS011;775;51.958;7.976;2023-04-03T04:24:14;12.40;;;2.43;;
1563;SDS011;775;51.958;7.976;2023-04-03T04:26:41;11.17;;;2.20;;
1563;SDS011;775;51.958;7.976;2023-04-03T04:29:08;11.57;;;2.10;;
1563;SDS011;775;51.958;7.976;2023-04-03T04:31:35;14.30;;;2.80;;
1563;SDS011;775;51.958;7.976;2023-04-03T04:34:02;11.20;;;1.93;;
1563;SDS011;775;51.958;7.976;2023-04-03T04:36:30;11.17;;;2.13;;
1563;SDS011;775;51.958;7.976;2023-04-03T04:38:57;11.70;;;2.30;;
1563;SDS011;775;51.958;7.976;2023-04-03T04:41:25;10.30;;;2.07;;
1563;SDS011;775;51.958;7.976;2023-04-03T04:43:52;14.60;;;2.67;;
1563;SDS011;775;51.958;7.976;2023-04-03T04:46:19;12.53;;;2.37;;
1563;SDS011;775;51.958;7.976;2023-04-03T04:48:46;12.60;;;2.27;;
1563;SDS011;775;51.958;7.976;2023-04-03T04:51:14;11.30;;;2.03;;
1563;SDS011;775;51.958;7.976;2023-04-03T04:53:41;14.67;;;2.77;;
1563;SDS011;775;51.958;7.976;2023-04-03T04:56:08;13.73;;;2.00;;
1563;SDS011;775;51.958;7.976;2023-04-03T04:58:37;13.00;;;3.73;;
1563;SDS011;775;51.958;7.976;2023-04-03T05:01:05;12.33;;;2.70;;
1563;SDS011;775;51.958;7.976;2023-04-03T05:03:33;12.67;;;1.97;;
1563;SDS011;775;51.958;7.976;2023-04-03T05:06:00;11.73;;;2.20;;
1563;SDS011;775;51.958;7.976;2023-04-03T05:08:27;11.40;;;2.60;;
1563;SDS011;775;51.958;7.976;2023-04-03T05:10:54;12.40;;;2.30;;
1563;SDS011;775;51.958;7.976;2023-04-03T05:13:21;10.93;;;2.00;;
1563;SDS011;775;51.958;7.976;2023-04-03T05:15:50;14.27;;;2.30;;
1563;SDS011;775;51.958;7.976;2023-04-03T05:18:17;13.07;;;2.40;;
1563;SDS011;775;51.958;7.976;2023-04-03T05:20:44;10.83;;;2.20;;
1563;SDS011;775;51.958;7.976;2023-04-03T05:23:11;14.13;;;2.20;;
1563;SDS011;775;51.958;7.976;2023-04-03T05:25:38;16.50;;;2.90;;
1563;SDS011;775;51.958;7.976;2023-04-03T05:28:05;11.50;;;2.50;;
1563;SDS011;775;51.958;7.976;2023-04-03T05:30:32;14.07;;;2.83;;
1563;SDS011;775;51.958;7.976;2023-04-03T05:33:01;16.07;;;2.87;;
1563;SDS011;775;51.958;7.976;2023-04-03T05:35:29;14.40;;;2.60;;
1563;SDS011;775;51.958;7.976;2023-04-03T05:37:56;14.67;;;2.10;;
1563;SDS011;775;51.958;7.976;2023-04-03T05:40:23;14.30;;;2.80;;
1563;SDS011;775;51.958;7.976;2023-04-03T05:42:50;13.83;;;3.23;;
1563;SDS011;775;51.958;7.976;2023-04-03T05:45:18;10.97;;;2.23;;
1563;SDS011;775;51.958;7.976;2023-04-03T05:47:45;12.83;;;2.70;;
1563;SDS011;775;51.958;7.976;2023-04-03T05:50:14;12.77;;;3.03;;
1563;SDS011;775;51.958;7.976;2023-04-03T05:52:42;14.90;;;2.63;;
1563;SDS011;775;51.958;7.976;2023-04-03T05:55:11;12.33;;;2.13;;
1563;SDS011;775;51.958;7.976;2023-04-03T05:57:38;11.30;;;2.10;;
1563;SDS011;775;51.958;7.976;2023-04-03T06:00:05;17.20;;;2.67;;
1563;SDS011;775;51.958;7.976;2023-04-03T06:02:33;12.60;;;2.90;;
1563;SDS011;775;51.958;7.976;2023-04-03T06:05:00;11.70;;;2.50;;
1563;SDS011;775;51.958;7.976;2023-04-03T06:07:29;14.17;;;3.10;;
1563;SDS011;775;51.958;7.976;2023-04-03T06:09:56;12.80;;;2.37;;
1563;SDS011;775;51.958;7.976;2023-04-03T06:12:23;11.77;;;2.37;;
1563;SDS011;775;51.958;7.976;2023-04-03T06:14:50;13.47;;;2.40;;
1563;SDS011;775;51.958;7.976;2023-04-03T06:17:18;13.30;;;2.60;;
1563;SDS011;775;51.958;7.976;2023-04-03T06:19:45;15.83;;;3.40;;
1563;SDS011;775;51.958;7.976;2023-04-03T06:22:12;15.70;;;2.50;;
1563;SDS011;775;51.958;7.976;2023-04-03T06:24:41;13.10;;;2.80;;
1563;SDS011;775;51.958;7.976;2023-04-03T06:27:09;13.13;;;2.50;;
1563;SDS011;775;51.958;7.976;2023-04-03T06:29:37;11.90;;;2.20;;
1563;SDS011;775;51.958;7.976;2023-04-03T06:32:04;12.60;;;2.27;;
1563;SDS011;775;51.958;7.976;2023-04-03T06:34:31;14.40;;;2.50;;
1563;SDS011;775;51.958;7.976;2023-04-03T06:36:58;14.20;;;2.80;;
1563;SDS011;775;51.958;7.976;2023-04-03T06:39:26;11.90;;;2.70;;
1563;SDS011;775;51.958;7.976;2023-04-03T06:41:54;13.73;;;2.60;;
1563;SDS011;775;51.958;7.976;2023-04-03T06:44:21;14.27;;;3.30;;
1563;SDS011;775;51.958;7.976;2023-04-03T06:46:48;13.33;;;3.13;;
1563;SDS011;775;51.958;7.976;2023-04-03T06:49:16;12.13;;;2.60;;
1563;SDS011;775;51.958;7.976;2023-04-03T06:51:43;13.10;;;2.60;;
1563;SDS011;775;51.958;7.976;2023-04-03T06:54:11;12.60;;;2.33;;
1563;SDS011;775;51.958;7.976;2023-04-03T06:56:38;10.70;;;1.77;;
1563;SDS011;775;51.958;7.976;2023-04-03T06:59:06;14.17;;;1.90;;
1563;SDS011;775;51.958;7.976;2023-04-03T07:01:33;12.60;;;3.07;;
1563;SDS011;775;51.958;7.976;2023-04-03T07:04:00;12.37;;;1.97;;
1563;SDS011;775;51.958;7.976;2023-04-03T07:06:27;11.70;;;2.00;;
1563;SDS011;775;51.958;7.976;2023-04-03T07:08:56;10.80;;;2.00;;
1563;SDS011;775;51.958;7.976;2023-04-03T07:11:23;11.33;;;1.90;;
1563;SDS011;775;51.958;7.976;2023-04-03T07:13:51;12.40;;;2.30;;
1563;SDS011;775;51.958;7.976;2023-04-03T07:16:20;11.97;;;2.27;;
1563;SDS011;775;51.958;7.976;2023-04-03T07:18:47;11.97;;;2.60;;
1563;SDS011;775;51.958;7.976;2023-04-03T07:21:15;16.70;;;2.30;;
1563;SDS011;775;51.958;7.976;2023-04-03T07:23:42;11.00;;;2.30;;
1563;SDS011;775;51.958;7.976;2023-04-03T07:26:09;13.87;;;2.20;;
1563;SDS011;775;51.958;7.976;2023-04-03T07:28:36;10.47;;;1.63;;
1563;SDS011;775;51.958;7.976;2023-04-03T07:31:06;12.10;;;1.90;;
1563;SDS011;775;51.958;7.976;2023-04-03T07:33:37;10.30;;;1.70;;
1563;SDS011;775;51.958;7.976;2023-04-03T07:36:04;11.50;;;1.77;;
1563;SDS011;775;51.958;7.976;2023-04-03T07:38:32;10.70;;;1.70;;
1563;SDS011;775;51.958;7.976;2023-04-03T07:41:00;13.10;;;1.80;;
1563;SDS011;775;51.958;7.976;2023-04-03T07:43:27;10.07;;;1.80;;
1563;SDS011;775;51.958;7.976;2023-04-03T07:45:54;10.90;;;2.00;;
1563;SDS011;775;51.958;7.976;2023-04-03T07:48:22;9.80;;;1.60;;
1563;SDS011;775;51.958;7.976;2023-04-03T07:50:50;11.90;;;2.07;;
1563;SDS011;775;51.958;7.976;2023-04-03T07:53:18;12.07;;;2.10;;
1563;SDS011;775;51.958;7.976;2023-04-03T07:55:45;16.70;;;2.40;;
1563;SDS011;775;51.958;7.976;2023-04-03T07:58:13;11.77;;;2.20;;
1563;SDS011;775;51.958;7.976;2023-04-03T08:00:41;10.97;;;1.80;;
1563;SDS011;775;51.958;7.976;2023-04-03T08:03:09;16.70;;;2.17;;
1563;SDS011;775;51.958;7.976;2023-04-03T08:05:37;10.13;;;2.30;;
1563;SDS011;775;51.958;7.976;2023-04-03T08:08:06;10.63;;;1.87;;
1563;SDS011;775;51.958;7.976;2023-04-03T08:10:33;13.03;;;2.10;;
1563;SDS011;775;51.958;7.976;2023-04-03T08:13:01;13.63;;;1.93;;
1563;SDS011;775;51.958;7.976;2023-04-03T08:15:29;12.40;;;2.10;;
1563;SDS011;775;51.958;7.976;2023-04-03T08:17:56;9.37;;;1.50;;
1563;SDS011;775;51.958;7.976;2023-04-03T08:20:23;12.00;;;1.77;;
1563;SDS011;775;51.958;7.976;2023-04-03T08:22:51;11.13;;;1.80;;
1563;SDS011;775;51.958;7.976;2023-04-03T08:25:19;9.60;;;1.87;;
1563;SDS011;775;51.958;7.976;2023-04-03T08:27:47;9.50;;;1.97;;
1563;SDS011;775;51.958;7.976;2023-04-03T08:30:14;13.00;;;1.50;;
1563;SDS011;775;51.958;7.976;2023-04-03T08:32:41;9.30;;;1.80;;
1563;SDS011;775;51.958;7.976;2023-04-03T08:35:09;11.13;;;2.37;;
1563;SDS011;775;51.958;7.976;2023-04-03T08:37:36;10.47;;;1.60;;
1563;SDS011;775;51.958;7.976;2023-04-03T08:40:04;11.23;;;2.50;;
1563;SDS011;775;51.958;7.976;2023-04-03T08:42:36;11.80;;;1.90;;
1563;SDS011;775;51.958;7.976;2023-04-03T08:45:06;10.30;;;1.60;;
1563;SDS011;775;51.958;7.976;2023-04-03T08:47:37;10.33;;;2.30;;
1563;SDS011;775;51.958;7.976;2023-04-03T08:50:06;11.83;;;1.83;;
1563;SDS011;775;51.958;7.976;2023-04-03T08:52:34;10.60;;;1.77;;
1563;SDS011;775;51.958;7.976;2023-04-03T08:55:03;10.00;;;1.63;;
1563;SDS011;775;51.958;7.976;2023-04-03T08:57:33;10.33;;;1.50;;
1563;SDS011;775;51.958;7.976;2023-04-03T09:00:03;10.33;;;1.70;;
1563;SDS011;775;51.958;7.976;2023-04-03T09:02:34;9.63;;;1.40;;
1563;SDS011;775;51.958;7.976;2023-04-03T09:05:02;9.37;;;1.40;;
1563;SDS011;775;51.958;7.976;2023-04-03T09:07:31;8.47;;;1.30;;
1563;SDS011;775;51.958;7.976;2023-04-03T09:10:00;8.50;;;1.20;;
1563;SDS011;775;51.958;7.976;2023-04-03T09:12:31;10.70;;;1.53;;
1563;SDS011;775;51.958;7.976;2023-04-03T09:15:02;10.40;;;1.70;;
1563;SDS011;775;51.958;7.976;2023-04-03T09:17:36;10.50;;;1.43;;
1563;SDS011;775;51.958;7.976;2023-04-03T09:20:09;10.33;;;1.70;;
1563;SDS011;775;51.958;7.976;2023-04-03T09:22:39;10.57;;;1.50;;
1563;SDS011;775;51.958;7.976;2023-04-03T09:25:10;8.50;;;1.40;;
1563;SDS011;775;51.958;7.976;2023-04-03T09:27:39;8.83;;;1.70;;
1563;SDS011;775;51.958;7.976;2023-04-03T09:30:11;9.03;;;1.60;;
1563;SDS011;775;51.958;7.976;2023-04-03T09:32:39;8.70;;;1.30;;
1563;SDS011;775;51.958;7.976;2023-04-03T09:35:13;9.40;;;1.40;;
1563;SDS011;775;51.958;7.976;2023-04-03T09:37:43;10.80;;;1.60;;
1563;SDS011;775;51.958;7.976;2023-04-03T09:42:57;9.60;;;1.50;;
1563;SDS011;775;51.958;7.976;2023-04-03T09:45:27;10.50;;;1.80;;
1563;SDS011;775;51.958;7.976;2023-04-03T09:48:07;9.00;;;1.20;;
1563;SDS011;775;51.958;7.976;2023-04-03T09:50:34;12.23;;;2.13;;
1563;SDS011;775;51.958;7.976;2023-04-03T09:53:04;9.40;;;1.40;;
1563;SDS011;775;51.958;7.976;2023-04-03T09:55:32;9.00;;;1.40;;
1563;SDS011;775;51.958;7.976;2023-04-03T09:58:00;8.20;;;1.20;;
1563;SDS011;775;51.958;7.976;2023-04-03T10:00:30;10.77;;;1.70;;
1563;SDS011;775;51.958;7.976;2023-04-03T10:02:58;9.30;;;1.60;;
1563;SDS011;775;51.958;7.976;2023-04-03T10:05:27;8.50;;;1.70;;
1563;SDS011;775;51.958;7.976;2023-04-03T10:08:07;8.50;;;1.50;;
1563;SDS011;775;51.958;7.976;2023-04-03T10:10:34;8.73;;;1.73;;
1563;SDS011;775;51.958;7.976;2023-04-03T10:13:05;8.70;;;1.50;;
1563;SDS011;775;51.958;7.976;2023-04-03T10:15:36;8.80;;;1.27;;
1563;SDS011;775;51.958;7.976;2023-04-03T10:18:06;8.73;;;1.50;;
1563;SDS011;775;51.958;7.976;2023-04-03T10:20:43;8.77;;;1.60;;
1563;SDS011;775;51.958;7.976;2023-04-03T10:23:15;8.40;;;1.50;;
1563;SDS011;775;51.958;7.976;2023-04-03T10:25:47;12.80;;;1.80;;
1563;SDS011;775;51.958;7.976;2023-04-03T10:28:16;8.93;;;1.87;;
1563;SDS011;775;51.958;7.976;2023-04-03T10:30:50;10.50;;;1.90;;
1563;SDS011;775;51.958;7.976;2023-04-03T10:33:28;9.73;;;1.47;;
1563;SDS011;775;51.958;7.976;2023-04-03T10:36:02;9.50;;;1.67;;
1563;SDS011;775;51.958;7.976;2023-04-03T10:38:36;8.80;;;1.33;;
1563;SDS011;775;51.958;7.976;2023-04-03T10:41:07;9.70;;;1.40;;
1563;SDS011;775;51.958;7.976;2023-04-03T10:43:40;8.50;;;1.47;;
1563;SDS011;775;51.958;7.976;2023-04-03T10:46:10;9.77;;;1.47;;
1563;SDS011;775;51.958;7.976;2023-04-03T10:48:43;9.63;;;1.43;;
1563;SDS011;775;51.958;7.976;2023-04-03T10:51:16;9.10;;;1.70;;
1563;SDS011;775;51.958;7.976;2023-04-03T10:53:49;9.57;;;1.60;;
1563;SDS011;775;51.958;7.976;2023-04-03T10:56:19;9.90;;;1.27;;
1563;SDS011;775;51.958;7.976;2023-04-03T10:58:48;8.60;;;1.20;;
1563;SDS011;775;51.958;7.976;2023-04-03T11:01:19;10.03;;;1.50;;
1563;SDS011;775;51.958;7.976;2023-04-03T11:03:48;9.63;;;1.50;;
1563;SDS011;775;51.958;7.976;2023-04-03T11:06:17;10.07;;;1.53;;
1563;SDS011;775;51.958;7.976;2023-04-03T11:08:47;9.23;;;1.40;;
1563;SDS011;775;51.958;7.976;2023-04-03T11:11:20;10.93;;;1.57;;
1563;SDS011;775;51.958;7.976;2023-04-03T11:13:49;9.27;;;1.60;;
1563;SDS011;775;51.958;7.976;2023-04-03T11:16:20;8.33;;;1.40;;
1563;SDS011;775;51.958;7.976;2023-04-03T11:18:52;10.17;;;1.33;;
1563;SDS011;775;51.958;7.976;2023-04-03T11:21:20;8.60;;;1.50;;
1563;SDS011;775;51.958;7.976;2023-04-03T11:23:48;8.37;;;1.37;;
1563;SDS011;775;51.958;7.976;2023-04-03T11:26:16;9.67;;;1.50;;
1563;SDS011;775;51.958;7.976;2023-04-03T11:28:45;8.87;;;1.50;;
1563;SDS011;775;51.958;7.976;2023-04-03T11:31:15;9.50;;;1.53;;
1563;SDS011;775;51.958;7.976;2023-04-03T11:33:49;9.87;;;1.57;;
1563;SDS011;775;51.958;7.976;2023-04-03T11:36:19;10.40;;;1.60;;
1563;SDS011;775;51.958;7.976;2023-04-03T11:38:48;10.10;;;1.50;;
1563;SDS011;775;51.958;7.976;2023-04-03T11:41:20;13.30;;;1.50;;
1563;SDS011;775;51.958;7.976;2023-04-03T11:43:55;9.10;;;1.67;;
1563;SDS011;775;51.958;7.976;2023-04-03T11:46:23;8.50;;;1.50;;
1563;SDS011;775;51.958;7.976;2023-04-03T11:49:15;9.70;;;1.57;;
1563;SDS011;775;51.958;7.976;2023-04-03T11:52:02;8.27;;;1.20;;
1563;SDS011;775;51.958;7.976;2023-04-03T12:02:45;9.10;;;1.40;;
1563;SDS011;775;51.958;7.976;2023-04-03T12:05:25;9.50;;;1.60;;
1563;SDS011;775;51.958;7.976;2023-04-03T12:10:35;8.90;;;1.60;;
1563;SDS011;775;51.958;7.976;2023-04-03T12:13:12;9.47;;;1.70;;
1563;SDS011;775;51.958;7.976;2023-04-03T12:15:44;9.90;;;1.40;;
1563;SDS011;775;51.958;7.976;2023-04-03T12:21:01;11.10;;;1.87;;
1563;SDS011;775;51.958;7.976;2023-04-03T12:23:30;9.00;;;1.20;;
1563;SDS011;775;51.958;7.976;2023-04-03T12:26:05;10.60;;;1.70;;
1563;SDS011;775;51.958;7.976;2023-04-03T12:28:37;12.70;;;1.60;;
1563;SDS011;775;51.958;7.976;2023-04-03T12:31:05;10.07;;;1.73;;
1563;SDS011;775;51.958;7.976;2023-04-03T12:33:37;9.40;;;1.80;;
1563;SDS011;775;51.958;7.976;2023-04-03T12:36:08;10.03;;;1.90;;
1563;SDS011;775;51.958;7.976;2023-04-03T12:41:24;9.33;;;1.70;;
1563;SDS011;775;51.958;7.976;2023-04-03T12:43:58;9.57;;;1.60;;
1563;SDS011;775;51.958;7.976;2023-04-03T12:46:28;16.30;;;1.80;;
1563;SDS011;775;51.958;7.976;2023-04-03T12:49:02;9.80;;;1.63;;
1563;SDS011;775;51.958;7.976;2023-04-03T12:51:41;8.90;;;1.63;;
1563;SDS011;775;51.958;7.976;2023-04-03T12:54:12;10.53;;;1.53;;
1563;SDS011;775;51.958;7.976;2023-04-03T12:56:40;11.33;;;1.60;;
1563;SDS011;775;51.958;7.976;2023-04-03T12:59:13;10.30;;;1.93;;
1563;SDS011;775;51.958;7.976;2023-04-03T13:01:41;11.67;;;1.90;;
1563;SDS011;775;51.958;7.976;2023-04-03T13:04:09;8.90;;;2.23;;
1563;SDS011;775;51.958;7.976;2023-04-03T13:06:38;9.40;;;1.50;;
1563;SDS011;775;51.958;7.976;2023-04-03T13:09:14;9.47;;;2.10;;
1563;SDS011;775;51.958;7.976;2023-04-03T13:11:46;10.40;;;1.67;;
1563;SDS011;775;51.958;7.976;2023-04-03T13:14:15;9.97;;;1.53;;
1563;SDS011;775;51.958;7.976;2023-04-03T13:16:44;8.93;;;1.57;;
1563;SDS011;775;51.958;7.976;2023-04-03T13:19:19;9.97;;;1.83;;
1563;SDS011;775;51.958;7.976;2023-04-03T13:21:46;9.77;;;1.70;;
1563;SDS011;775;51.958;7.976;2023-04-03T13:24:16;8.70;;;1.50;;
1563;SDS011;775;51.958;7.976;2023-04-03T13:26:43;8.63;;;1.37;;
1563;SDS011;775;51.958;7.976;2023-04-03T13:29:17;11.10;;;2.33;;
1563;SDS011;775;51.958;7.976;2023-04-03T13:31:46;10.20;;;1.60;;
1563;SDS011;775;51.958;7.976;2023-04-03T13:34:15;9.80;;;1.77;;
1563;SDS011;775;51.958;7.976;2023-04-03T13:36:44;11.10;;;1.43;;
1563;SDS011;775;51.958;7.976;2023-04-03T13:39:22;9.43;;;1.63;;
1563;SDS011;775;51.958;7.976;2023-04-03T13:41:50;9.13;;;1.40;;
1563;SDS011;775;51.958;7.976;2023-04-03T13:44:23;9.43;;;1.70;;
1563;SDS011;775;51.958;7.976;2023-04-03T13:46:53;9.97;;;1.60;;
1563;SDS011;775;51.958;7.976;2023-04-03T13:49:21;9.30;;;1.60;;
1563;SDS011;775;51.958;7.976;2023-04-03T13:51:49;9.47;;;1.67;;
1563;SDS011;775;51.958;7.976;2023-04-03T13:54:18;10.20;;;1.83;;
1563;SDS011;775;51.958;7.976;2023-04-03T13:56:46;11.50;;;1.90;;
1563;SDS011;775;51.958;7.976;2023-04-03T13:59:22;8.97;;;1.27;;
1563;SDS011;775;51.958;7.976;2023-04-03T14:01:51;14.83;;;1.80;;
1563;SDS011;775;51.958;7.976;2023-04-03T14:04:19;9.83;;;1.60;;
1563;SDS011;775;51.958;7.976;2023-04-03T14:06:47;9.60;;;1.80;;
1563;SDS011;775;51.958;7.976;2023-04-03T14:09:14;9.40;;;1.50;;
1563;SDS011;775;51.958;7.976;2023-04-03T14:11:41;10.10;;;2.10;;
1563;SDS011;775;51.958;7.976;2023-04-03T14:14:14;10.23;;;1.47;;
1563;SDS011;775;51.958;7.976;2023-04-03T14:16:45;12.20;;;1.50;;
1563;SDS011;775;51.958;7.976;2023-04-03T14:19:18;11.50;;;2.67;;
1563;SDS011;775;51.958;7.976;2023-04-03T14:21:45;8.90;;;1.60;;
1563;SDS011;775;51.958;7.976;2023-04-03T14:24:12;9.33;;;1.50;;
1563;SDS011;775;51.958;7.976;2023-04-03T14:26:39;9.90;;;2.10;;
1563;SDS011;775;51.958;7.976;2023-04-03T14:29:09;9.03;;;1.70;;
1563;SDS011;775;51.958;7.976;2023-04-03T14:31:38;9.13;;;1.60;;
1563;SDS011;775;51.958;7.976;2023-04-03T14:34:05;9.00;;;1.30;;
1563;SDS011;775;51.958;7.976;2023-04-03T14:36:32;10.40;;;1.63;;
1563;SDS011;775;51.958;7.976;2023-04-03T14:38:59;8.80;;;1.73;;
1563;SDS011;775;51.958;7.976;2023-04-03T14:41:27;9.40;;;1.70;;
1563;SDS011;775;51.958;7.976;2023-04-03T14:43:54;8.50;;;1.43;;
1563;SDS011;775;51.958;7.976;2023-04-03T14:46:23;8.40;;;1.57;;
1563;SDS011;775;51.958;7.976;2023-04-03T14:48:52;8.90;;;1.60;;
1563;SDS011;775;51.958;7.976;2023-04-03T14:51:20;8.77;;;1.70;;
1563;SDS011;775;51.958;7.976;2023-04-03T14:53:47;9.83;;;1.50;;
1563;SDS011;775;51.958;7.976;2023-04-03T14:56:16;9.60;;;1.67;;
1563;SDS011;775;51.958;7.976;2023-04-03T14:58:44;9.50;;;1.50;;
1563;SDS011;775;51.958;7.976;2023-04-03T15:01:14;9.20;;;1.67;;
1563;SDS011;775;51.958;7.976;2023-04-03T15:03:41;11.00;;;1.70;;
1563;SDS011;775;51.958;7.976;2023-04-03T15:06:10;11.33;;;1.70;;
1563;SDS011;775;51.958;7.976;2023-04-03T15:08:38;11.43;;;1.67;;
1563;SDS011;775;51.958;7.976;2023-04-03T15:11:06;9.70;;;1.47;;
1563;SDS011;775;51.958;7.976;2023-04-03T15:13:33;9.17;;;1.40;;
1563;SDS011;775;51.958;7.976;2023-04-03T15:16:00;8.67;;;1.47;;
1563;SDS011;775;51.958;7.976;2023-04-03T15:18:29;9.20;;;1.80;;
1563;SDS011;775;51.958;7.976;2023-04-03T15:20:57;9.97;;;1.57;;
1563;SDS011;775;51.958;7.976;2023-04-03T15:23:26;8.87;;;1.53;;
1563;SDS011;775;51.958;7.976;2023-04-03T15:25:55;9.60;;;1.50;;
1563;SDS011;775;51.958;7.976;2023-04-03T15:28:23;9.23;;;1.43;;
1563;SDS011;775;51.958;7.976;2023-04-03T15:30:51;8.90;;;1.63;;
1563;SDS011;775;51.958;7.976;2023-04-03T15:33:19;8.27;;;1.40;;
1563;SDS011;775;51.958;7.976;2023-04-03T15:35:46;13.60;;;2.10;;
1563;SDS011;775;51.958;7.976;2023-04-03T15:38:13;9.03;;;1.50;;
1563;SDS011;775;51.958;7.976;2023-04-03T15:40:41;9.10;;;1.70;;
1563;SDS011;775;51.958;7.976;2023-04-03T15:43:08;9.37;;;1.70;;
1563;SDS011;775;51.958;7.976;2023-04-03T15:45:36;10.03;;;1.70;;
1563;SDS011;775;51.958;7.976;2023-04-03T15:48:03;10.20;;;1.70;;
1563;SDS011;775;51.958;7.976;2023-04-03T15:50:31;9.57;;;1.67;;